createdAt,value
2023-02-28T00:54:58.368Z,25.00
2023-02-28T00:55:59.326Z,25.00
2023-02-28T00:56:59.311Z,25.00
2023-02-28T00:57:59.299Z,25.00
2023-02-28T00:58:59.290Z,25.00
2023-02-28T00:59:59.278Z,25.00
2023-02-28T01:00:59.275Z,0.00
2023-02-28T01:01:59.269Z,0.00
2023-02-28T01:02:59.258Z,0.00
2023-02-28T01:03:59.253Z,0.00
2023-02-28T01:04:59.247Z,0.00
2023-02-28T01:05:59.230Z,0.00
2023-02-28T01:06:59.225Z,0.00
2023-02-28T01:07:59.210Z,0.00
2023-02-28T01:08:59.204Z,0.00
2023-02-28T01:09:59.195Z,11.93
2023-02-28T01:10:59.212Z,25.16
2023-02-28T01:11:59.176Z,24.43
2023-02-28T01:12:59.183Z,25.00
2023-02-28T01:13:59.157Z,26.52
2023-02-28T01:14:59.153Z,28.52
2023-02-28T01:15:59.199Z,27.08
2023-02-28T01:16:59.138Z,25.25
2023-02-28T01:17:59.129Z,27.48
2023-02-28T01:18:59.111Z,27.02
2023-02-28T01:19:59.109Z,25.00
2023-02-28T01:20:59.089Z,25.00
2023-02-28T01:21:59.086Z,25.00
2023-02-28T01:22:59.080Z,27.31
2023-02-28T01:23:59.078Z,28.37
2023-02-28T01:24:59.061Z,25.00
2023-02-28T01:25:59.052Z,26.67
2023-02-28T01:26:59.067Z,28.19
2023-02-28T01:27:59.029Z,26.67
2023-02-28T01:28:59.030Z,30.32
2023-02-28T01:29:59.015Z,29.51
2023-02-28T01:30:59.016Z,28.47
2023-02-28T01:31:59.039Z,23.29
2023-02-28T01:32:58.991Z,25.00
2023-02-28T01:33:58.980Z,26.25
2023-02-28T01:34:58.972Z,28.33
2023-02-28T01:35:58.976Z,25.18
2023-02-28T01:36:58.953Z,28.12
2023-02-28T01:38:04.796Z,27.92
2023-02-28T01:38:58.934Z,28.17
2023-02-28T01:39:58.934Z,28.07
2023-02-28T01:40:59.910Z,28.36
2023-02-28T01:41:58.908Z,28.22
2023-02-28T01:42:58.919Z,20.40
2023-02-28T01:43:58.894Z,25.00
2023-02-28T01:44:58.876Z,25.00
2023-02-28T01:45:58.874Z,28.73
2023-02-28T01:46:58.862Z,28.42
2023-02-28T01:47:58.855Z,29.49
2023-02-28T01:48:58.842Z,25.58
2023-02-28T01:49:58.828Z,26.51
2023-02-28T01:50:58.841Z,25.30
2023-02-28T01:51:58.812Z,26.14
2023-02-28T01:52:58.805Z,27.97
2023-02-28T01:53:58.794Z,30.44
2023-02-28T01:54:58.797Z,27.06
2023-02-28T01:55:58.772Z,25.00
2023-02-28T01:56:58.768Z,25.00
2023-02-28T01:57:58.756Z,25.90
2023-02-28T01:58:58.781Z,30.19
2023-02-28T01:59:58.740Z,34.09
2023-02-28T02:00:58.735Z,32.30
2023-02-28T02:01:58.784Z,29.00
2023-02-28T02:02:58.765Z,31.85
2023-02-28T02:03:58.707Z,32.74
2023-02-28T02:04:58.692Z,32.31
2023-02-28T02:05:58.689Z,28.71
2023-02-28T02:06:58.676Z,29.90
2023-02-28T02:07:58.677Z,25.00
2023-02-28T02:08:58.658Z,27.42
2023-02-28T02:09:58.649Z,27.33
2023-02-28T02:10:58.640Z,29.52
2023-02-28T02:11:58.637Z,30.55
2023-02-28T02:12:58.627Z,30.12
2023-02-28T02:13:58.614Z,27.10
2023-02-28T02:14:58.635Z,26.67
2023-02-28T02:15:58.637Z,27.11
2023-02-28T02:16:58.591Z,29.20
2023-02-28T02:17:58.577Z,29.23
2023-02-28T02:18:58.569Z,26.56
2023-02-28T02:19:58.557Z,32.39
2023-02-28T02:20:58.564Z,33.67
2023-02-28T02:21:58.552Z,32.34
2023-02-28T02:22:58.544Z,29.07
2023-02-28T02:23:58.526Z,30.76
2023-02-28T02:24:58.517Z,32.49
2023-02-28T02:25:58.506Z,30.30
2023-02-28T02:26:58.498Z,28.57
2023-02-28T02:27:58.488Z,33.40
2023-02-28T02:28:58.478Z,30.86
2023-02-28T02:29:58.476Z,30.45
2023-02-28T02:30:58.575Z,31.90
2023-02-28T02:31:58.518Z,27.78
2023-02-28T02:32:58.445Z,32.13
2023-02-28T02:33:58.436Z,30.52
2023-02-28T02:34:58.437Z,29.42
2023-02-28T02:35:58.469Z,25.00
2023-02-28T02:36:58.408Z,29.70
2023-02-28T02:37:58.413Z,33.30
2023-02-28T02:38:58.394Z,30.64
2023-02-28T02:39:58.384Z,28.04
2023-02-28T02:40:58.376Z,33.27
2023-02-28T02:41:58.364Z,33.55
2023-02-28T02:42:58.361Z,30.94
2023-02-28T02:43:58.349Z,30.10
2023-02-28T02:44:58.336Z,31.29
2023-02-28T02:45:58.331Z,33.54
2023-02-28T02:46:58.373Z,29.73
2023-02-28T02:47:58.308Z,28.93
2023-02-28T02:48:58.303Z,29.40
2023-02-28T02:50:58.284Z,28.65
2023-02-28T02:51:58.279Z,28.94
2023-02-28T02:52:58.270Z,29.15
2023-02-28T02:53:58.262Z,27.23
2023-02-28T02:54:58.246Z,31.55
2023-02-28T02:55:58.238Z,32.18
2023-02-28T02:56:58.229Z,32.79
2023-02-28T02:57:58.224Z,32.23
2023-02-28T02:58:58.212Z,28.20
2023-02-28T03:01:58.201Z,26.36
2023-02-28T03:02:58.205Z,28.32
2023-02-28T03:03:58.198Z,25.00
2023-02-28T03:04:58.170Z,32.21
2023-02-28T03:05:58.149Z,29.49
2023-02-28T03:07:58.148Z,31.65
2023-02-28T03:08:58.128Z,32.48
2023-02-28T03:09:58.109Z,30.31
2023-02-28T03:10:58.107Z,29.57
2023-02-28T03:11:58.103Z,29.49
2023-02-28T03:12:58.097Z,31.59
2023-02-28T03:13:58.084Z,32.30
2023-02-28T03:14:58.082Z,29.11
2023-02-28T03:15:58.095Z,28.62
2023-02-28T03:17:58.042Z,25.77
2023-02-28T03:18:58.059Z,27.40
2023-02-28T03:19:58.037Z,29.08
2023-02-28T03:20:58.019Z,29.61
2023-02-28T03:21:58.011Z,29.58
2023-02-28T03:22:58.002Z,27.53
2023-02-28T03:23:57.993Z,28.14
2023-02-28T03:24:58.004Z,27.92
2023-02-28T03:25:57.992Z,29.50
2023-02-28T03:26:57.968Z,30.80
2023-02-28T03:27:57.976Z,28.24
2023-02-28T03:28:57.955Z,28.30
2023-02-28T03:29:57.945Z,29.20
2023-02-28T03:30:57.938Z,38.07
2023-02-28T03:31:58.069Z,28.48
2023-02-28T03:32:57.914Z,26.02
2023-02-28T03:33:57.901Z,27.98
2023-02-28T03:34:57.922Z,28.82
2023-02-28T03:35:57.931Z,29.97
2023-02-28T03:36:57.908Z,30.78
2023-02-28T03:37:57.877Z,27.33
2023-02-28T03:38:57.857Z,28.49
2023-02-28T03:39:57.855Z,31.00
2023-02-28T03:40:57.839Z,33.60
2023-02-28T03:41:57.835Z,34.91
2023-02-28T03:42:57.826Z,32.75
2023-02-28T03:43:57.825Z,33.74
2023-02-28T03:44:57.810Z,35.92
2023-02-28T03:45:57.854Z,33.52
2023-02-28T03:46:57.801Z,32.01
2023-02-28T03:47:57.780Z,32.54
2023-02-28T03:48:57.770Z,34.70
2023-02-28T03:49:57.766Z,33.31
2023-02-28T03:50:57.783Z,32.13
2023-02-28T03:51:57.746Z,35.62
2023-02-28T03:52:57.750Z,32.27
2023-02-28T03:53:57.725Z,32.03
2023-02-28T03:54:57.720Z,34.01
2023-02-28T03:55:57.705Z,36.71
2023-02-28T03:56:57.698Z,35.92
2023-02-28T03:57:57.771Z,35.48
2023-02-28T03:58:57.685Z,32.60
2023-02-28T03:59:57.676Z,35.14
2023-02-28T04:00:57.664Z,32.22
2023-02-28T04:01:57.700Z,36.31
2023-02-28T04:02:57.644Z,33.05
2023-02-28T04:03:57.647Z,34.33
2023-02-28T04:04:57.631Z,33.31
2023-02-28T04:05:57.621Z,30.98
2023-02-28T04:06:57.684Z,32.83
2023-02-28T04:07:57.603Z,30.75
2023-02-28T04:08:57.599Z,30.23
2023-02-28T04:09:57.584Z,31.45
2023-02-28T04:10:57.583Z,34.30
2023-02-28T04:11:57.573Z,30.24
2023-02-28T04:12:57.558Z,31.62
2023-02-28T04:13:57.552Z,29.33
2023-02-28T04:14:57.569Z,32.83
2023-02-28T05:14:57.998Z,30.13
2023-02-28T07:03:56.021Z,116.14
2023-02-28T07:04:57.065Z,119.89
2023-02-28T07:57:55.590Z,242.19
2023-02-28T08:16:55.353Z,232.57
2023-02-28T08:49:55.115Z,244.07
2023-02-28T08:51:06.413Z,250.00
2023-02-28T09:02:55.086Z,246.62
2023-02-28T11:51:53.379Z,249.70
2023-02-28T20:58:48.432Z,121.89
2023-02-28T20:59:48.433Z,121.41
2023-02-28T21:00:48.416Z,121.58
2023-02-28T21:01:48.577Z,123.33
2023-02-28T21:02:48.452Z,121.34
2023-02-28T21:03:48.391Z,121.32
2023-02-28T21:04:48.389Z,123.41
2023-02-28T21:05:48.374Z,121.63
2023-02-28T21:06:48.378Z,122.66
2023-02-28T21:07:48.353Z,122.47
2023-02-28T21:08:48.389Z,122.11
2023-02-28T21:09:48.338Z,121.67
2023-02-28T21:10:48.362Z,120.69
2023-02-28T21:11:48.326Z,122.70
2023-02-28T21:12:48.312Z,122.47
2023-02-28T21:13:48.308Z,120.68
2023-02-28T21:14:48.297Z,118.45
2023-02-28T21:15:48.341Z,120.83
2023-02-28T21:16:48.278Z,119.26
2023-02-28T21:17:48.271Z,121.71
2023-02-28T21:18:48.259Z,121.09
2023-02-28T21:19:48.256Z,118.48
2023-02-28T21:20:48.244Z,119.84
2023-02-28T21:21:48.313Z,118.92
2023-02-28T21:22:48.223Z,118.56
2023-02-28T21:23:48.218Z,121.19
2023-02-28T21:24:48.213Z,119.09
2023-02-28T21:25:48.200Z,119.33
2023-02-28T21:26:48.211Z,118.68
2023-02-28T21:27:48.200Z,117.63
2023-02-28T21:28:48.170Z,120.15
2023-02-28T21:29:48.167Z,119.27
2023-02-28T21:30:48.197Z,119.32
2023-02-28T21:31:48.195Z,117.30
2023-02-28T21:32:48.134Z,117.17
2023-02-28T21:33:48.122Z,115.64
2023-02-28T21:34:48.122Z,116.95
2023-02-28T21:35:48.137Z,115.88
2023-02-28T21:36:48.101Z,119.20
2023-02-28T21:37:48.088Z,117.78
2023-02-28T21:38:48.081Z,118.03
2023-02-28T21:39:48.071Z,118.46
2023-02-28T21:40:48.065Z,118.54
2023-02-28T21:41:48.061Z,118.67
2023-02-28T21:42:48.066Z,118.13
2023-02-28T21:43:48.034Z,115.68
2023-02-28T21:44:48.029Z,116.86
2023-02-28T21:45:48.018Z,114.58
2023-02-28T21:46:48.120Z,114.87
2023-02-28T21:47:48.006Z,114.96
2023-02-28T21:48:47.986Z,115.08
2023-02-28T21:49:47.981Z,115.42
2023-02-28T21:50:47.969Z,114.58
2023-02-28T21:51:47.977Z,112.38
2023-02-28T21:52:47.954Z,114.33
2023-02-28T21:53:47.943Z,113.76
2023-02-28T21:54:47.937Z,113.13
2023-02-28T21:55:47.921Z,114.42
2023-02-28T21:56:47.914Z,115.35
2023-02-28T21:57:47.912Z,114.98
2023-02-28T21:58:47.977Z,113.69
2023-02-28T21:59:47.888Z,113.89
2023-02-28T22:00:47.883Z,113.06
2023-02-28T22:01:47.888Z,111.90
2023-02-28T22:02:47.936Z,112.38
2023-02-28T22:03:47.851Z,113.67
2023-02-28T22:04:47.879Z,116.23
2023-02-28T22:05:47.836Z,112.98
2023-02-28T22:06:47.834Z,114.07
2023-02-28T22:07:47.825Z,112.22
2023-02-28T22:08:47.805Z,113.11
2023-02-28T22:09:47.802Z,112.72
2023-02-28T22:10:47.790Z,112.43
2023-02-28T22:11:47.782Z,112.93
2023-02-28T22:12:47.774Z,114.07
2023-02-28T22:13:47.767Z,113.54
2023-02-28T22:14:47.776Z,112.62
2023-02-28T22:15:47.816Z,111.02
2023-02-28T22:16:53.753Z,112.63
2023-02-28T22:17:47.721Z,112.80
2023-02-28T22:18:47.713Z,113.11
2023-02-28T22:19:47.704Z,113.29
2023-02-28T22:20:47.694Z,112.61
2023-02-28T22:21:47.866Z,110.64
2023-02-28T22:22:47.679Z,110.54
2023-02-28T22:23:47.669Z,112.25
2023-02-28T22:24:47.664Z,110.07
2023-02-28T22:25:47.651Z,109.99
2023-02-28T22:26:47.648Z,110.32
2023-02-28T22:27:47.637Z,109.14
2023-02-28T22:28:47.620Z,107.81
2023-02-28T22:29:48.736Z,106.96
2023-02-28T22:30:47.621Z,108.59
2023-02-28T22:31:47.787Z,109.34
2023-02-28T22:32:47.581Z,110.75
2023-02-28T22:33:47.580Z,112.36
2023-02-28T22:34:47.567Z,112.17
2023-02-28T22:35:47.666Z,109.24
2023-02-28T22:36:47.560Z,108.98
2023-02-28T22:37:47.537Z,109.01
